createdAt,value
2023-03-13T00:01:21.823Z,12.70
2023-03-13T00:03:49.699Z,14.63
2023-03-13T00:06:18.586Z,16.13
2023-03-13T00:08:46.479Z,12.68
2023-03-13T00:11:16.420Z,14.00
2023-03-13T00:13:45.949Z,12.70
2023-03-13T00:16:15.824Z,14.52
2023-03-13T00:18:47.595Z,24.00
2023-03-13T00:21:15.628Z,6.85
2023-03-13T00:23:43.348Z,14.40
2023-03-13T00:26:13.739Z,12.57
2023-03-13T00:28:44.494Z,16.65
2023-03-13T00:31:17.991Z,7.88
2023-03-13T00:33:48.006Z,16.58
2023-03-13T00:36:17.538Z,14.73
2023-03-13T00:38:46.060Z,12.40
2023-03-13T00:41:15.598Z,10.82
2023-03-13T00:43:44.974Z,11.20
2023-03-13T00:46:15.157Z,11.52
2023-03-13T00:48:44.720Z,25.48
2023-03-13T00:51:13.524Z,13.80
2023-03-13T00:53:41.795Z,13.82
2023-03-13T00:56:11.536Z,15.52
2023-03-13T00:58:41.443Z,12.20
2023-03-13T01:01:11.933Z,12.98
2023-03-13T01:03:41.339Z,13.93
2023-03-13T01:06:13.641Z,14.88
2023-03-13T01:08:42.115Z,13.95
2023-03-13T01:11:12.544Z,9.18
2023-03-13T01:13:40.828Z,15.30
2023-03-13T01:16:11.475Z,12.93
2023-03-13T01:18:41.720Z,14.57
2023-03-13T01:21:11.564Z,21.00
2023-03-13T01:23:39.893Z,16.00
2023-03-13T01:26:09.580Z,10.77
2023-03-13T01:28:38.680Z,12.43
2023-03-13T01:31:13.227Z,15.70
2023-03-13T01:33:41.276Z,10.70
2023-03-13T01:36:10.989Z,12.70
2023-03-13T01:38:39.861Z,11.88
2023-03-13T01:41:09.273Z,21.40
2023-03-13T01:43:38.379Z,11.63
2023-03-13T01:46:16.252Z,9.55
2023-03-13T01:48:50.787Z,15.30
2023-03-13T01:51:25.064Z,12.45
2023-03-13T01:53:59.414Z,10.23
2023-03-13T01:56:33.165Z,13.75
2023-03-13T01:59:01.804Z,7.20
2023-03-13T02:01:30.516Z,10.75
2023-03-13T02:03:59.910Z,11.23
2023-03-13T02:06:32.797Z,16.50
2023-03-13T02:09:05.539Z,14.63
2023-03-13T02:11:45.938Z,18.90
2023-03-13T02:14:14.355Z,9.30
2023-03-13T02:16:48.029Z,12.88
2023-03-13T02:19:20.895Z,16.92
2023-03-13T02:21:56.354Z,10.23
2023-03-13T02:24:36.309Z,8.90
2023-03-13T02:27:06.018Z,12.52
2023-03-13T02:29:33.984Z,8.88
2023-03-13T02:32:02.027Z,8.88
2023-03-13T02:34:35.573Z,17.40
2023-03-13T02:37:06.690Z,8.68
2023-03-13T02:39:36.083Z,9.10
2023-03-13T02:42:06.109Z,8.30
2023-03-13T02:44:39.409Z,7.20
2023-03-13T02:47:09.789Z,7.18
2023-03-13T02:49:37.814Z,13.13
2023-03-13T02:52:14.092Z,7.95
2023-03-13T02:54:44.787Z,5.93
2023-03-13T02:57:14.237Z,6.32
2023-03-13T02:59:42.293Z,15.00
2023-03-13T03:02:10.270Z,9.20
2023-03-13T03:04:38.216Z,4.93
2023-03-13T03:07:06.223Z,7.43
2023-03-13T03:09:34.455Z,8.27
2023-03-13T03:12:02.346Z,7.07
2023-03-13T03:14:32.027Z,11.65
2023-03-13T03:16:59.940Z,6.60
2023-03-13T03:19:28.022Z,8.70
2023-03-13T03:21:55.854Z,3.58
2023-03-13T03:24:24.062Z,4.32
2023-03-13T03:26:52.002Z,5.78
2023-03-13T03:29:20.509Z,6.07
2023-03-13T03:31:49.885Z,7.82
2023-03-13T03:34:17.825Z,7.75
2023-03-13T03:36:45.832Z,6.00
2023-03-13T03:39:13.787Z,6.80
2023-03-13T03:41:41.688Z,3.00
2023-03-13T03:44:09.568Z,3.55
2023-03-13T03:46:37.615Z,2.92
2023-03-13T03:49:07.053Z,3.45
2023-03-13T03:51:34.945Z,6.30
2023-03-13T03:54:02.748Z,4.55
2023-03-13T03:56:30.528Z,5.43
2023-03-13T03:58:58.284Z,3.67
2023-03-13T04:01:26.285Z,4.20
2023-03-13T04:03:54.109Z,5.82
2023-03-13T04:06:23.545Z,3.35
2023-03-13T04:08:51.384Z,10.43
2023-03-13T04:11:19.674Z,1.85
2023-03-13T04:13:47.521Z,4.45
2023-03-13T04:16:15.391Z,1.60
2023-03-13T04:18:43.199Z,5.23
2023-03-13T04:21:11.170Z,1.60
2023-03-13T04:23:40.478Z,1.73
2023-03-13T04:26:08.509Z,1.93
2023-03-13T04:28:36.287Z,1.80
2023-03-13T04:31:04.529Z,4.20
2023-03-13T04:33:32.446Z,2.13
2023-03-13T04:36:00.392Z,1.67
2023-03-13T04:38:28.356Z,1.63
2023-03-13T04:40:57.472Z,1.80
2023-03-13T04:43:25.248Z,1.67
2023-03-13T04:45:54.605Z,8.10
2023-03-13T04:48:22.706Z,0.80
2023-03-13T04:50:50.896Z,1.13
2023-03-13T04:53:19.421Z,1.47
2023-03-13T04:55:47.495Z,2.80
2023-03-13T04:58:16.734Z,1.43
2023-03-13T05:00:44.576Z,4.07
2023-03-13T05:03:12.566Z,1.80
2023-03-13T05:05:40.772Z,5.90
2023-03-13T05:08:08.937Z,1.50
2023-03-13T05:10:36.965Z,2.37
2023-03-13T05:13:05.122Z,1.53
2023-03-13T05:15:34.340Z,2.03
2023-03-13T05:18:02.266Z,10.83
2023-03-13T05:20:30.219Z,2.70
2023-03-13T05:22:58.127Z,4.27
2023-03-13T05:25:26.021Z,1.30
2023-03-13T05:27:53.857Z,1.50
2023-03-13T05:30:21.741Z,1.23
2023-03-13T05:32:51.672Z,2.03
2023-03-13T05:35:19.940Z,1.50
2023-03-13T05:37:47.842Z,2.33
2023-03-13T05:40:16.511Z,2.77
2023-03-13T05:42:44.629Z,3.00
2023-03-13T05:45:13.470Z,5.13
2023-03-13T05:47:41.768Z,2.00
2023-03-13T05:50:12.322Z,1.67
2023-03-13T05:52:40.405Z,1.47
2023-03-13T05:55:08.933Z,3.10
2023-03-13T05:57:36.929Z,1.87
2023-03-13T06:00:05.623Z,2.73
2023-03-13T06:02:33.686Z,2.67
2023-03-13T06:05:01.658Z,1.57
2023-03-13T06:07:30.816Z,1.77
2023-03-13T06:09:58.722Z,1.20
2023-03-13T06:12:26.892Z,2.93
2023-03-13T06:14:55.525Z,2.87
2023-03-13T06:17:25.443Z,1.60
2023-03-13T06:19:54.185Z,1.80
2023-03-13T06:22:22.238Z,5.20
2023-03-13T06:24:51.881Z,1.00
2023-03-13T06:27:19.791Z,3.73
2023-03-13T06:29:53.421Z,2.27
2023-03-13T06:32:21.373Z,1.13
2023-03-13T06:34:49.477Z,1.10
2023-03-13T06:37:17.717Z,2.50
2023-03-13T06:39:45.879Z,5.40
2023-03-13T06:42:15.245Z,2.97
2023-03-13T06:44:48.343Z,1.67
2023-03-13T06:47:16.670Z,1.40
2023-03-13T06:49:44.839Z,4.93
2023-03-13T06:52:12.912Z,1.20
2023-03-13T06:54:40.881Z,2.37
2023-03-13T06:57:08.897Z,1.23
2023-03-13T06:59:39.248Z,1.87
2023-03-13T07:02:07.838Z,3.33
2023-03-13T07:04:36.201Z,1.23
2023-03-13T07:07:04.303Z,1.63
2023-03-13T07:09:32.652Z,9.90
2023-03-13T07:12:00.636Z,1.57
2023-03-13T07:14:28.928Z,1.33
2023-03-13T07:17:01.500Z,1.17
2023-03-13T07:19:29.686Z,1.50
2023-03-13T07:21:58.173Z,1.73
2023-03-13T07:24:27.424Z,3.33
2023-03-13T07:27:06.242Z,2.23
2023-03-13T07:29:35.779Z,1.50
2023-03-13T07:32:06.190Z,1.53
2023-03-13T07:34:34.542Z,2.03
2023-03-13T07:37:02.394Z,3.33
2023-03-13T07:39:30.348Z,2.00
2023-03-13T07:41:58.093Z,3.13
2023-03-13T07:44:25.969Z,1.93
2023-03-13T07:46:53.998Z,3.83
2023-03-13T07:49:23.122Z,1.10
2023-03-13T07:51:52.096Z,2.43
2023-03-13T07:54:20.363Z,0.90
2023-03-13T07:56:48.977Z,2.03
2023-03-13T07:59:16.842Z,1.80
2023-03-13T08:01:44.735Z,1.30
2023-03-13T08:04:14.965Z,1.83
2023-03-13T08:06:44.638Z,1.50
2023-03-13T08:09:13.370Z,1.97
2023-03-13T08:11:42.521Z,2.00
2023-03-13T08:14:10.901Z,2.33
2023-03-13T08:16:39.255Z,3.33
2023-03-13T08:19:07.376Z,1.10
2023-03-13T08:21:37.167Z,1.30
2023-03-13T08:24:08.411Z,1.73
2023-03-13T08:26:38.790Z,1.73
2023-03-13T08:29:08.690Z,1.60
2023-03-13T08:31:38.827Z,2.47
2023-03-13T08:34:06.722Z,2.80
2023-03-13T08:36:36.656Z,4.77
2023-03-13T08:39:08.469Z,1.80
2023-03-13T08:41:37.822Z,3.50
2023-03-13T08:44:06.698Z,2.50
2023-03-13T08:46:36.365Z,3.27
2023-03-13T08:49:05.647Z,2.30
2023-03-13T08:51:34.204Z,2.27
2023-03-13T08:54:03.669Z,3.83
2023-03-13T08:56:33.365Z,2.20
2023-03-13T08:59:02.941Z,1.50
2023-03-13T09:01:35.002Z,4.40
2023-03-13T09:04:04.714Z,1.57
2023-03-13T09:06:33.573Z,1.90
2023-03-13T09:09:01.890Z,4.00
2023-03-13T09:11:29.799Z,9.23
2023-03-13T09:13:59.772Z,2.60
2023-03-13T09:16:29.255Z,1.83
2023-03-13T09:18:58.248Z,2.30
2023-03-13T09:21:27.676Z,2.10
2023-03-13T09:23:55.513Z,2.97
2023-03-13T09:26:23.931Z,3.43
2023-03-13T09:28:52.193Z,1.47
2023-03-13T09:31:23.740Z,3.40
2023-03-13T09:33:52.024Z,2.90
2023-03-13T09:36:22.485Z,1.33
2023-03-13T09:38:51.483Z,3.00
2023-03-13T09:41:27.104Z,6.10
2023-03-13T09:44:01.744Z,4.90
2023-03-13T09:46:40.233Z,3.10
2023-03-13T09:49:18.150Z,1.07
2023-03-13T09:51:52.345Z,5.50
2023-03-13T09:54:27.078Z,1.63
2023-03-13T09:56:59.826Z,6.33
2023-03-13T09:59:46.931Z,6.77
2023-03-13T10:02:26.587Z,4.50
2023-03-13T10:05:01.833Z,2.50
2023-03-13T10:07:29.868Z,2.03
2023-03-13T10:09:58.838Z,3.57
2023-03-13T10:12:30.463Z,2.10
2023-03-13T10:15:33.647Z,4.60
2023-03-13T10:18:13.742Z,3.20
2023-03-13T10:20:44.703Z,3.03
2023-03-13T10:23:17.378Z,5.60
2023-03-13T10:25:45.637Z,2.30
2023-03-13T10:28:15.834Z,4.03
2023-03-13T10:30:49.211Z,3.80
2023-03-13T10:33:25.235Z,6.67
2023-03-13T10:36:08.450Z,3.30
2023-03-13T10:38:48.054Z,4.73
2023-03-13T10:41:27.895Z,5.30
2023-03-13T10:43:59.674Z,2.83
2023-03-13T10:46:30.197Z,6.50
2023-03-13T10:49:03.322Z,2.90
2023-03-13T10:51:38.777Z,2.70
2023-03-13T10:54:16.587Z,2.60
2023-03-13T10:56:44.807Z,4.53
2023-03-13T10:59:23.618Z,3.27
2023-03-13T11:01:52.950Z,4.37
2023-03-13T11:04:31.661Z,4.63
2023-03-13T11:07:03.854Z,4.10
2023-03-13T11:09:32.306Z,4.00
2023-03-13T11:12:05.454Z,3.03
2023-03-13T11:14:33.397Z,5.10
2023-03-13T11:17:05.831Z,3.93
2023-03-13T11:19:48.620Z,3.30
2023-03-13T11:22:28.669Z,3.80
2023-03-13T11:25:04.597Z,4.33
2023-03-13T11:27:40.128Z,5.57
2023-03-13T11:30:19.593Z,6.67
2023-03-13T11:32:57.046Z,2.80
2023-03-13T11:35:46.518Z,3.30
2023-03-13T11:38:21.198Z,4.63
2023-03-13T11:40:59.528Z,3.77
2023-03-13T11:43:45.492Z,3.77
2023-03-13T11:46:38.311Z,5.33
2023-03-13T11:49:31.392Z,2.90
2023-03-13T11:52:22.442Z,7.47
2023-03-13T11:55:03.218Z,4.53
2023-03-13T11:57:37.877Z,3.23
2023-03-13T12:00:25.207Z,6.97
2023-03-13T12:02:58.050Z,4.73
2023-03-13T12:05:29.757Z,3.23
2023-03-13T12:08:06.434Z,2.87
2023-03-13T12:10:39.714Z,2.40
2023-03-13T12:13:14.270Z,3.20
2023-03-13T12:15:45.718Z,3.87
2023-03-13T12:18:21.772Z,6.10
2023-03-13T12:21:04.229Z,2.90
2023-03-13T12:23:43.876Z,3.90
2023-03-13T12:26:16.686Z,3.73
2023-03-13T12:28:50.242Z,4.60
2023-03-13T12:31:27.610Z,3.63
2023-03-13T12:34:01.359Z,3.00
2023-03-13T12:36:34.552Z,4.03
2023-03-13T12:39:17.107Z,4.53
2023-03-13T12:41:48.515Z,5.27
2023-03-13T12:44:20.315Z,3.53
2023-03-13T12:46:52.758Z,6.50
2023-03-13T12:49:55.010Z,4.40
2023-03-13T12:53:08.422Z,3.43
2023-03-13T12:56:20.440Z,9.70
2023-03-13T12:58:51.065Z,3.47
2023-03-13T13:01:31.633Z,4.57
2023-03-13T13:04:03.229Z,4.87
2023-03-13T13:06:55.075Z,2.30
2023-03-13T13:09:25.766Z,4.00
2023-03-13T13:11:56.494Z,3.80
2023-03-13T13:14:59.075Z,3.70
2023-03-13T13:17:41.229Z,4.33
2023-03-13T13:20:41.301Z,3.93
2023-03-13T13:23:33.898Z,3.00
2023-03-13T13:26:48.857Z,6.20
2023-03-13T13:29:59.552Z,2.40
2023-03-13T13:32:45.108Z,3.30
2023-03-13T13:35:29.296Z,3.40
2023-03-13T13:38:40.416Z,2.43
2023-03-13T13:41:28.464Z,5.30
2023-03-13T13:44:28.150Z,2.83
2023-03-13T13:46:59.565Z,5.53
2023-03-13T13:49:52.985Z,3.33
2023-03-13T13:52:35.170Z,3.40
2023-03-13T13:55:11.290Z,2.63
2023-03-13T13:57:40.068Z,5.13
2023-03-13T14:00:20.951Z,4.00
2023-03-13T14:02:52.172Z,3.13
2023-03-13T14:05:24.610Z,6.53
2023-03-13T14:08:02.307Z,5.50
2023-03-13T14:10:40.040Z,2.40
2023-03-13T14:13:14.860Z,2.87
2023-03-13T14:15:45.104Z,9.10
2023-03-13T14:18:20.186Z,2.70
2023-03-13T14:21:03.721Z,7.53
2023-03-13T14:23:42.373Z,5.30
2023-03-13T14:26:13.135Z,3.80
2023-03-13T14:28:43.410Z,9.10
2023-03-13T14:31:12.404Z,4.60
2023-03-13T14:33:40.330Z,2.00
2023-03-13T14:36:10.266Z,3.70
2023-03-13T14:38:38.515Z,2.40
2023-03-13T14:41:07.401Z,5.47
2023-03-13T14:43:38.301Z,3.80
2023-03-13T14:46:16.543Z,10.23
2023-03-13T14:48:44.586Z,2.60
2023-03-13T14:51:22.440Z,4.57
2023-03-13T14:53:58.055Z,7.57
2023-03-13T14:56:34.462Z,10.53
2023-03-13T14:59:16.080Z,1.67
2023-03-13T15:01:44.766Z,4.77
2023-03-13T15:04:12.954Z,3.00
2023-03-13T15:06:42.259Z,4.70
2023-03-13T15:09:19.114Z,2.67
2023-03-13T15:11:59.136Z,3.50
2023-03-13T15:14:36.690Z,5.03
2023-03-13T15:17:05.058Z,2.67
2023-03-13T15:19:33.243Z,4.63
2023-03-13T15:22:02.598Z,3.17
2023-03-13T15:24:30.376Z,2.60
2023-03-13T15:26:58.261Z,3.30
2023-03-13T15:29:26.607Z,3.43
2023-03-13T15:31:54.700Z,2.10
2023-03-13T15:34:25.488Z,2.43
2023-03-13T15:36:53.573Z,5.20
2023-03-13T15:39:25.185Z,3.20
2023-03-13T15:41:54.446Z,2.90
2023-03-13T15:44:22.414Z,4.63
2023-03-13T15:46:50.383Z,4.70
2023-03-13T15:49:19.058Z,2.17
2023-03-13T15:51:47.666Z,3.50
2023-03-13T15:54:15.861Z,3.27
2023-03-13T15:56:45.994Z,3.30
2023-03-13T15:59:15.946Z,4.10
2023-03-13T16:01:45.207Z,3.17
2023-03-13T16:04:13.403Z,2.83
2023-03-13T16:06:41.299Z,4.40
2023-03-13T16:09:09.151Z,6.97
2023-03-13T16:11:37.537Z,3.20
2023-03-13T16:14:06.853Z,3.50
2023-03-13T16:16:37.690Z,2.43
2023-03-13T16:19:07.768Z,2.87
2023-03-13T16:21:36.506Z,3.90
2023-03-13T16:24:04.860Z,4.87
2023-03-13T16:26:33.784Z,4.03
2023-03-13T16:29:01.887Z,3.10
2023-03-13T16:31:33.051Z,3.33
2023-03-13T16:34:02.332Z,5.30
2023-03-13T16:36:31.613Z,3.40
2023-03-13T16:39:00.392Z,3.70
2023-03-13T16:41:29.899Z,2.87
2023-03-13T16:43:58.033Z,4.30
2023-03-13T16:46:30.296Z,4.30
2023-03-13T16:48:59.885Z,2.83
2023-03-13T16:51:29.353Z,3.30
2023-03-13T16:54:00.289Z,5.77
2023-03-13T16:56:32.067Z,3.70
2023-03-13T16:59:00.856Z,3.40
2023-03-13T17:01:33.004Z,5.77
2023-03-13T17:06:11.706Z,4.53
2023-03-13T17:08:39.638Z,3.07
2023-03-13T17:11:08.069Z,3.80
2023-03-13T17:13:49.842Z,4.17
2023-03-13T17:16:20.440Z,3.10
2023-03-13T17:18:51.577Z,2.20
2023-03-13T17:21:22.363Z,3.73
2023-03-13T17:23:51.200Z,5.43
2023-03-13T17:26:22.717Z,2.80
2023-03-13T17:28:53.735Z,5.10
2023-03-13T17:31:22.736Z,9.17
2023-03-13T17:33:50.984Z,4.57
2023-03-13T17:36:21.497Z,4.17
2023-03-13T17:38:51.381Z,6.47
2023-03-13T17:41:22.188Z,6.93
2023-03-13T17:43:51.547Z,5.27
2023-03-13T17:46:21.795Z,7.43
2023-03-13T17:48:51.829Z,6.00
2023-03-13T17:51:23.097Z,5.40
2023-03-13T17:53:51.700Z,5.73
2023-03-13T17:56:21.804Z,11.87
2023-03-13T17:58:54.506Z,10.60
2023-03-13T18:01:23.775Z,14.00
2023-03-13T18:03:54.657Z,9.93
2023-03-13T18:06:25.255Z,12.10
2023-03-13T18:08:55.106Z,13.73
2023-03-13T18:11:24.903Z,9.17
2023-03-13T18:13:55.174Z,9.70
2023-03-13T18:16:28.170Z,10.47
2023-03-13T18:18:57.138Z,9.90
2023-03-13T18:21:25.601Z,13.03
2023-03-13T18:23:54.206Z,13.57
2023-03-13T18:26:25.830Z,11.10
2023-03-13T18:29:00.305Z,19.50
2023-03-13T18:31:30.172Z,12.77
2023-03-13T18:33:59.823Z,9.73
2023-03-13T18:36:28.773Z,18.23
2023-03-13T18:38:58.047Z,9.27
2023-03-13T18:41:27.272Z,7.23
2023-03-13T18:43:56.563Z,6.00
2023-03-13T18:46:27.406Z,6.50
2023-03-13T18:48:56.108Z,4.80
2023-03-13T18:51:26.473Z,3.23
2023-03-13T18:53:55.756Z,2.70
2023-03-13T18:56:26.480Z,6.13
2023-03-13T18:58:57.534Z,4.73
2023-03-13T19:01:29.151Z,3.17
2023-03-13T19:03:59.480Z,5.73
2023-03-13T19:06:29.893Z,4.30
2023-03-13T19:09:01.387Z,2.00
2023-03-13T19:11:31.636Z,2.43
2023-03-13T19:14:02.231Z,1.73
2023-03-13T19:16:35.096Z,3.30
2023-03-13T19:19:03.981Z,3.00
2023-03-13T19:21:33.095Z,3.40
2023-03-13T19:24:04.329Z,3.00
2023-03-13T19:26:35.375Z,3.10
2023-03-13T19:29:05.743Z,3.07
2023-03-13T19:31:33.836Z,4.53
2023-03-13T19:34:02.620Z,5.43
2023-03-13T19:36:38.759Z,4.00
2023-03-13T19:39:14.884Z,2.30
2023-03-13T19:41:42.577Z,3.23
2023-03-13T19:44:12.303Z,2.93
2023-03-13T19:46:43.287Z,4.43
2023-03-13T19:49:13.983Z,3.73
2023-03-13T19:51:45.076Z,3.90
2023-03-13T19:54:13.762Z,5.53
2023-03-13T19:56:44.505Z,3.20
2023-03-13T19:59:16.800Z,3.10
2023-03-13T20:01:47.091Z,11.17
2023-03-13T20:04:15.435Z,3.53
2023-03-13T20:06:44.238Z,6.47
2023-03-13T20:09:14.980Z,2.73
2023-03-13T20:11:43.116Z,5.07
2023-03-13T20:14:11.650Z,3.03
2023-03-13T20:16:41.343Z,5.93
2023-03-13T20:19:12.818Z,3.13
2023-03-13T20:21:43.013Z,2.73
2023-03-13T20:24:11.924Z,3.47
2023-03-13T20:26:40.077Z,1.70
2023-03-13T20:29:08.178Z,2.30
2023-03-13T20:31:36.215Z,1.80
2023-03-13T20:34:05.449Z,4.70
2023-03-13T20:36:33.674Z,3.77
2023-03-13T20:39:02.149Z,2.27
2023-03-13T20:41:31.296Z,3.47
2023-03-13T20:43:59.861Z,3.93
2023-03-13T20:46:28.375Z,2.20
2023-03-13T20:48:58.810Z,2.00
2023-03-13T20:51:28.920Z,4.77
2023-03-13T20:53:57.041Z,2.23
2023-03-13T20:56:25.082Z,2.90
2023-03-13T20:58:52.804Z,1.40
2023-03-13T21:01:22.411Z,1.17
2023-03-13T21:03:54.096Z,2.13
2023-03-13T21:06:22.113Z,3.28
2023-03-13T21:08:51.802Z,1.30
2023-03-13T21:11:21.400Z,1.80
2023-03-13T21:14:04.813Z,1.43
2023-03-13T21:16:33.149Z,2.88
2023-03-13T21:19:01.685Z,5.85
2023-03-13T21:21:29.576Z,6.30
2023-03-13T21:23:58.962Z,5.80
2023-03-13T21:26:27.244Z,2.67
2023-03-13T21:28:55.014Z,3.00
2023-03-13T21:31:22.850Z,4.47
2023-03-13T21:33:51.475Z,2.83
2023-03-13T21:36:22.221Z,4.73
2023-03-13T21:38:51.073Z,3.13
2023-03-13T21:41:21.934Z,2.65
2023-03-13T21:43:50.097Z,2.30
2023-03-13T21:46:19.873Z,1.75
2023-03-13T21:48:48.533Z,2.10
2023-03-13T21:51:17.082Z,1.13
2023-03-13T21:53:45.351Z,3.97
2023-03-13T21:56:15.978Z,1.25
2023-03-13T21:58:46.372Z,2.60
2023-03-13T22:01:15.912Z,2.35
2023-03-13T22:03:44.363Z,2.05
2023-03-13T22:06:16.250Z,2.35
2023-03-13T22:08:44.244Z,1.35
2023-03-13T22:11:12.457Z,3.30
2023-03-13T22:13:40.519Z,2.00
2023-03-13T22:16:11.722Z,0.80
2023-03-13T22:18:40.732Z,3.15
2023-03-13T22:21:08.801Z,1.75
2023-03-13T22:23:36.852Z,3.05
2023-03-13T22:26:04.943Z,3.33
2023-03-13T22:28:32.811Z,3.30
2023-03-13T22:31:01.808Z,2.47
2023-03-13T22:33:31.286Z,1.45
2023-03-13T22:35:59.415Z,1.55
2023-03-13T22:38:27.340Z,1.75
2023-03-13T22:40:59.368Z,2.20
2023-03-13T22:43:27.814Z,1.38
2023-03-13T22:45:56.489Z,1.58
2023-03-13T22:48:29.241Z,1.48
2023-03-13T22:51:03.681Z,1.77
2023-03-13T22:53:32.267Z,3.30
2023-03-13T22:56:00.729Z,2.95
2023-03-13T22:58:29.280Z,1.92
2023-03-13T23:00:57.278Z,1.33
2023-03-13T23:03:25.548Z,1.60
2023-03-13T23:05:54.084Z,3.05
2023-03-13T23:08:23.572Z,2.10
2023-03-13T23:10:51.507Z,1.33
2023-03-13T23:13:19.804Z,1.70
2023-03-13T23:15:55.603Z,1.55
2023-03-13T23:18:24.581Z,2.45
2023-03-13T23:20:53.030Z,1.40
2023-03-13T23:23:21.314Z,3.60
2023-03-13T23:25:51.014Z,1.83
2023-03-13T23:28:19.091Z,1.15
2023-03-13T23:30:47.080Z,0.95
2023-03-13T23:33:15.359Z,1.38
2023-03-13T23:35:44.207Z,0.80
2023-03-13T23:38:12.797Z,1.95
2023-03-13T23:40:40.717Z,4.25
2023-03-13T23:43:10.063Z,2.67
2023-03-13T23:45:37.937Z,1.17
2023-03-13T23:48:06.063Z,1.17
2023-03-13T23:50:34.316Z,3.95
2023-03-13T23:53:02.197Z,1.23
2023-03-13T23:55:30.269Z,2.67
2023-03-13T23:57:58.196Z,0.98
